createdAt,value
2018-02-15T00:00:33.408Z,94.20
2018-02-15T00:03:44.930Z,94.20
2018-02-15T00:06:49.910Z,93.40
2018-02-15T00:09:58.674Z,92.90
2018-02-15T00:13:03.200Z,92.70
2018-02-15T00:16:15.870Z,92.90
2018-02-15T00:19:22.979Z,92.90
2018-02-15T00:22:28.160Z,92.60
2018-02-15T00:25:34.567Z,92.70
2018-02-15T00:28:58.249Z,92.30
2018-02-15T00:32:04.575Z,92.80
2018-02-15T00:35:09.823Z,92.60
2018-02-15T00:38:15.628Z,92.20
2018-02-15T00:41:21.429Z,92.10
2018-02-15T00:44:27.094Z,92.50
2018-02-15T00:47:33.632Z,94.10
2018-02-15T00:50:38.680Z,94.10
2018-02-15T00:53:45.154Z,93.70
2018-02-15T00:56:50.094Z,95.00
2018-02-15T00:59:57.736Z,95.70
2018-02-15T01:03:05.596Z,95.50
2018-02-15T01:06:11.041Z,96.10
2018-02-15T01:09:21.003Z,95.90
2018-02-15T01:12:27.702Z,94.80
2018-02-15T01:15:33.195Z,94.50
2018-02-15T01:18:39.065Z,94.90
2018-02-15T01:21:43.954Z,95.40
2018-02-15T01:24:52.680Z,94.90
2018-02-15T01:28:00.386Z,94.90
2018-02-15T01:31:08.003Z,94.50
2018-02-15T01:34:22.088Z,94.40
2018-02-15T01:37:35.364Z,94.60
2018-02-15T01:40:46.516Z,95.20
2018-02-15T01:43:51.623Z,94.30
2018-02-15T01:46:57.607Z,94.20
2018-02-15T01:50:15.317Z,93.30
2018-02-15T01:53:20.949Z,93.30
2018-02-15T01:56:27.364Z,91.60
2018-02-15T01:59:33.093Z,91.60
2018-02-15T02:02:41.838Z,91.10
2018-02-15T02:05:51.157Z,91.20
2018-02-15T02:09:08.456Z,90.90
2018-02-15T02:12:20.483Z,90.90
2018-02-15T02:15:31.288Z,90.90
2018-02-15T02:18:38.088Z,90.30
2018-02-15T02:21:45.421Z,90.70
2018-02-15T02:24:56.630Z,90.70
2018-02-15T02:28:05.276Z,90.70
2018-02-15T02:31:11.465Z,90.40
2018-02-15T02:34:23.068Z,90.80
2018-02-15T02:37:30.181Z,92.50
2018-02-15T02:40:36.290Z,92.40
2018-02-15T02:43:46.984Z,93.80
2018-02-15T02:46:54.397Z,94.50
2018-02-15T02:50:00.978Z,94.40
2018-02-15T02:53:06.605Z,95.00
2018-02-15T02:56:12.478Z,95.20
2018-02-15T02:59:24.708Z,94.70
2018-02-15T03:02:34.244Z,94.40
2018-02-15T03:05:40.139Z,94.70
2018-02-15T03:08:52.556Z,94.70
2018-02-15T03:11:58.324Z,94.10
2018-02-15T03:15:04.391Z,93.70
2018-02-15T03:18:16.476Z,94.10
2018-02-15T03:21:21.333Z,94.10
2018-02-15T03:28:00.772Z,95.00
2018-02-15T03:31:07.648Z,95.10
2018-02-15T03:34:14.915Z,95.20
2018-02-15T03:37:26.590Z,95.50
2018-02-15T03:40:31.732Z,93.80
2018-02-15T03:43:49.143Z,93.00
2018-02-15T03:46:54.117Z,93.00
2018-02-15T03:49:59.553Z,93.20
2018-02-15T03:53:05.368Z,92.80
2018-02-15T03:56:10.845Z,93.10
2018-02-15T03:59:15.979Z,93.40
2018-02-15T04:02:24.632Z,94.10
2018-02-15T04:05:29.821Z,94.00
2018-02-15T04:08:36.068Z,94.10
2018-02-15T04:11:41.497Z,93.90
2018-02-15T04:14:53.464Z,97.20
2018-02-15T04:18:02.380Z,96.90
2018-02-15T04:21:07.623Z,97.00
2018-02-15T04:24:12.777Z,97.20
2018-02-15T04:27:18.607Z,97.20
2018-02-15T04:30:32.823Z,97.40
2018-02-15T04:33:42.796Z,97.70
2018-02-15T04:36:50.676Z,98.40
2018-02-15T04:39:56.305Z,99.10
2018-02-15T04:43:01.427Z,99.90
2018-02-15T04:46:07.056Z,99.90
2018-02-15T04:49:12.636Z,99.50
2018-02-15T04:52:19.951Z,98.90
2018-02-15T04:55:28.144Z,98.90
2018-02-15T04:58:33.751Z,99.00
2018-02-15T05:01:38.648Z,99.00
2018-02-15T05:04:44.477Z,99.30
2018-02-15T05:07:49.553Z,99.40
2018-02-15T05:11:01.960Z,99.10
2018-02-15T05:14:08.733Z,98.40
2018-02-15T05:17:14.023Z,98.30
2018-02-15T05:20:25.319Z,98.20
2018-02-15T05:23:35.379Z,98.10
2018-02-15T05:26:41.560Z,98.20
2018-02-15T05:29:46.316Z,98.50
2018-02-15T05:32:51.591Z,98.20
2018-02-15T05:39:30.801Z,97.20
2018-02-15T05:42:39.120Z,97.10
2018-02-15T05:45:49.423Z,97.10
2018-02-15T05:48:54.524Z,97.20
2018-02-15T05:52:00.924Z,97.30
2018-02-15T05:55:06.812Z,97.50
2018-02-15T05:58:22.572Z,97.40
2018-02-15T06:01:28.312Z,97.40
2018-02-15T06:04:33.764Z,97.40
2018-02-15T06:07:40.250Z,97.80
2018-02-15T06:10:45.704Z,97.30
2018-02-15T06:13:50.576Z,97.20
2018-02-15T06:16:55.866Z,96.30
2018-02-15T06:20:00.838Z,96.50
2018-02-15T06:23:06.152Z,96.60
2018-02-15T06:26:11.188Z,97.40
2018-02-15T06:29:17.640Z,97.70
2018-02-15T06:32:22.634Z,98.20
2018-02-15T06:35:27.840Z,99.70
2018-02-15T06:38:33.632Z,99.90
2018-02-15T06:41:39.340Z,99.90
2018-02-15T06:44:44.192Z,99.60
2018-02-15T06:47:49.784Z,99.90
2018-02-15T06:50:55.310Z,99.90
2018-02-15T06:54:00.476Z,99.90
2018-02-15T06:57:07.203Z,99.90
2018-02-15T07:00:12.277Z,99.90
2018-02-15T07:03:20.597Z,99.90
2018-02-15T07:06:27.101Z,99.90
2018-02-15T07:09:32.466Z,99.90
2018-02-15T07:12:39.080Z,99.90
2018-02-15T07:15:44.187Z,99.90
2018-02-15T07:18:49.194Z,99.90
2018-02-15T07:21:54.017Z,99.90
2018-02-15T07:25:00.432Z,99.90
2018-02-15T07:28:05.206Z,99.90
2018-02-15T07:31:10.227Z,99.90
2018-02-15T07:34:15.234Z,99.90
2018-02-15T07:37:20.079Z,99.90
2018-02-15T07:40:24.948Z,99.90
2018-02-15T07:43:30.076Z,99.90
2018-02-15T07:46:35.411Z,99.90
2018-02-15T07:49:40.709Z,99.90
2018-02-15T07:52:46.314Z,99.90
2018-02-15T07:55:51.109Z,99.90
2018-02-15T07:58:56.280Z,99.90
2018-02-15T08:02:01.676Z,99.90
2018-02-15T08:05:08.005Z,99.90
2018-02-15T08:08:13.024Z,99.90
2018-02-15T08:11:18.309Z,99.90
2018-02-15T08:14:24.010Z,99.90
2018-02-15T08:17:31.395Z,99.90
2018-02-15T08:20:37.289Z,99.90
2018-02-15T08:23:42.167Z,99.90
2018-02-15T08:26:47.580Z,99.90
2018-02-15T08:29:52.222Z,99.90
2018-02-15T08:32:57.773Z,99.90
2018-02-15T08:36:03.121Z,99.90
2018-02-15T08:39:08.960Z,99.90
2018-02-15T08:42:13.569Z,99.90
2018-02-15T08:45:18.818Z,99.90
2018-02-15T08:48:24.101Z,99.90
2018-02-15T08:51:30.288Z,99.90
2018-02-15T08:54:37.141Z,99.90
2018-02-15T08:57:42.537Z,99.90
2018-02-15T09:00:47.637Z,99.90
2018-02-15T09:03:52.439Z,99.90
2018-02-15T09:06:57.968Z,99.90
2018-02-15T09:10:02.823Z,99.90
2018-02-15T09:13:07.775Z,99.90
2018-02-15T09:16:13.072Z,99.90
2018-02-15T09:19:18.888Z,99.90
2018-02-15T09:22:29.891Z,99.90
2018-02-15T09:25:34.604Z,99.90
2018-02-15T09:28:39.947Z,99.90
2018-02-15T09:31:45.326Z,99.90
2018-02-15T09:34:51.151Z,99.90
2018-02-15T09:37:57.012Z,99.90
2018-02-15T09:41:02.152Z,99.90
2018-02-15T09:44:08.556Z,99.90
2018-02-15T09:47:14.074Z,99.90
2018-02-15T09:50:19.683Z,99.90
2018-02-15T09:53:24.808Z,99.90
2018-02-15T09:56:30.965Z,99.90
2018-02-15T09:59:36.630Z,99.90
2018-02-15T10:02:43.147Z,99.90
2018-02-15T10:05:48.896Z,99.90
2018-02-15T10:08:54.340Z,99.90
2018-02-15T10:11:59.522Z,99.90
2018-02-15T10:15:04.992Z,99.90
2018-02-15T10:18:10.244Z,99.90
2018-02-15T10:21:15.593Z,99.90
2018-02-15T10:24:20.612Z,99.90
2018-02-15T10:27:25.348Z,99.90
2018-02-15T10:30:30.400Z,99.90
2018-02-15T10:33:35.591Z,99.90
2018-02-15T10:36:41.064Z,99.90
2018-02-15T10:39:45.784Z,99.90
2018-02-15T10:42:51.523Z,99.90
2018-02-15T10:45:56.944Z,99.90
2018-02-15T10:49:02.520Z,99.90
2018-02-15T10:52:07.561Z,99.90
2018-02-15T10:55:12.951Z,99.90
2018-02-15T10:58:18.049Z,99.90
2018-02-15T11:01:30.074Z,99.90
2018-02-15T11:04:41.336Z,99.90
2018-02-15T11:07:46.896Z,99.90
2018-02-15T11:10:51.883Z,99.90
2018-02-15T11:13:57.535Z,99.90
2018-02-15T11:17:03.419Z,99.90
2018-02-15T11:20:09.389Z,99.90
2018-02-15T11:23:14.541Z,99.90
2018-02-15T11:26:19.675Z,99.90
2018-02-15T11:29:25.144Z,99.90
2018-02-15T11:32:30.215Z,99.90
2018-02-15T11:35:36.739Z,99.90
2018-02-15T11:38:42.263Z,99.90
2018-02-15T11:41:48.983Z,99.90
2018-02-15T11:44:54.421Z,99.90
2018-02-15T11:48:03.134Z,99.90
2018-02-15T11:51:07.587Z,99.90
2018-02-15T11:54:13.043Z,99.90
2018-02-15T11:57:21.647Z,99.90
2018-02-15T12:00:27.972Z,99.90
2018-02-15T12:03:35.820Z,99.90
2018-02-15T12:06:47.052Z,99.90
2018-02-15T12:09:52.211Z,99.90
2018-02-15T12:12:57.928Z,99.90
2018-02-15T12:16:03.678Z,99.90
2018-02-15T12:19:08.980Z,99.90
2018-02-15T12:22:13.884Z,99.90
2018-02-15T12:25:19.429Z,99.90
2018-02-15T12:28:24.488Z,99.90
2018-02-15T12:31:29.652Z,99.90
2018-02-15T12:34:46.383Z,99.90
2018-02-15T12:37:51.764Z,99.90
2018-02-15T12:40:56.944Z,99.90
2018-02-15T12:44:14.420Z,99.90
2018-02-15T12:47:19.799Z,99.90
2018-02-15T12:50:25.508Z,99.90
2018-02-15T12:53:30.812Z,99.90
2018-02-15T12:56:43.754Z,99.90
2018-02-15T12:59:48.982Z,99.90
2018-02-15T13:02:54.646Z,99.90
2018-02-15T13:05:59.755Z,99.90
2018-02-15T13:09:05.860Z,99.90
2018-02-15T13:12:10.734Z,99.90
2018-02-15T13:15:15.800Z,99.90
2018-02-15T13:18:21.175Z,99.90
2018-02-15T13:21:27.844Z,99.90
2018-02-15T13:24:33.636Z,99.90
2018-02-15T13:27:44.851Z,99.90
2018-02-15T13:30:50.558Z,99.90
2018-02-15T13:33:56.187Z,99.90
2018-02-15T13:37:01.491Z,99.90
2018-02-15T13:40:06.505Z,99.90
2018-02-15T13:43:11.847Z,99.90
2018-02-15T13:46:17.076Z,99.90
2018-02-15T13:49:31.035Z,99.90
2018-02-15T13:52:36.570Z,99.90
2018-02-15T13:55:42.036Z,99.90
2018-02-15T13:58:48.214Z,99.90
2018-02-15T14:01:54.126Z,99.90
2018-02-15T14:05:00.578Z,99.90
2018-02-15T14:08:06.736Z,99.90
2018-02-15T14:11:11.998Z,99.90
2018-02-15T14:14:17.604Z,99.90
2018-02-15T14:17:22.487Z,99.90
2018-02-15T14:20:28.379Z,99.90
2018-02-15T14:23:34.519Z,99.90
2018-02-15T14:26:39.606Z,99.90
2018-02-15T14:29:45.165Z,99.90
2018-02-15T14:32:52.193Z,99.90
2018-02-15T14:35:57.467Z,99.90
2018-02-15T14:39:02.855Z,99.90
2018-02-15T14:42:08.170Z,99.90
2018-02-15T14:45:13.952Z,99.90
2018-02-15T14:48:20.636Z,99.90
2018-02-15T14:51:25.308Z,99.90
2018-02-15T14:54:30.900Z,99.90
2018-02-15T14:57:36.178Z,99.90
2018-02-15T15:00:41.211Z,99.90
2018-02-15T15:03:46.492Z,99.90
2018-02-15T15:06:51.516Z,99.90
2018-02-15T15:09:56.689Z,99.90
2018-02-15T15:13:02.409Z,99.90
2018-02-15T15:16:07.696Z,99.90
2018-02-15T15:19:13.341Z,99.90
2018-02-15T15:22:18.503Z,99.90
2018-02-15T15:25:23.892Z,99.90
2018-02-15T15:28:29.468Z,99.90
2018-02-15T15:31:35.944Z,99.90
2018-02-15T15:34:41.703Z,99.90
2018-02-15T15:37:47.148Z,99.90
2018-02-15T15:40:52.724Z,99.90
2018-02-15T15:43:58.153Z,99.90
2018-02-15T15:47:04.124Z,99.90
2018-02-15T15:50:09.449Z,99.90
2018-02-15T15:53:14.962Z,99.90
2018-02-15T15:56:20.818Z,99.90
2018-02-15T15:59:26.511Z,99.90
2018-02-15T16:02:32.012Z,99.90
2018-02-15T16:05:38.488Z,99.90
2018-02-15T16:08:44.076Z,99.90
2018-02-15T16:11:49.748Z,99.90
2018-02-15T16:14:55.868Z,99.90
2018-02-15T16:18:01.328Z,99.90
2018-02-15T16:21:07.303Z,99.90
2018-02-15T16:24:13.141Z,99.90
2018-02-15T16:27:18.199Z,99.90
2018-02-15T16:30:25.087Z,99.90
2018-02-15T16:33:30.423Z,99.90
2018-02-15T16:36:36.327Z,99.90
2018-02-15T16:39:41.692Z,99.90
2018-02-15T16:42:47.881Z,99.90
2018-02-15T16:45:52.851Z,99.90
2018-02-15T16:48:59.039Z,99.90
2018-02-15T16:52:04.696Z,99.90
2018-02-15T16:55:09.487Z,99.90
2018-02-15T16:58:14.963Z,99.90
2018-02-15T17:01:20.586Z,99.90
2018-02-15T17:04:26.380Z,99.90
2018-02-15T17:07:32.711Z,99.90
2018-02-15T17:10:39.761Z,99.90
2018-02-15T17:13:45.149Z,99.90
2018-02-15T17:16:50.108Z,99.90
2018-02-15T17:19:54.864Z,99.90
2018-02-15T17:23:00.093Z,99.90
2018-02-15T17:26:05.649Z,99.90
2018-02-15T17:29:11.490Z,99.90
2018-02-15T17:32:16.271Z,99.90
2018-02-15T17:35:21.224Z,99.90
2018-02-15T17:38:26.131Z,99.90
2018-02-15T17:41:31.192Z,99.90
2018-02-15T17:44:36.249Z,99.90
2018-02-15T17:47:43.676Z,99.90
2018-02-15T17:50:48.855Z,99.90
2018-02-15T17:53:55.065Z,99.90
2018-02-15T17:57:00.480Z,99.90
2018-02-15T18:00:06.239Z,99.90
2018-02-15T18:03:11.328Z,99.90
2018-02-15T18:06:16.738Z,99.90
2018-02-15T18:09:21.759Z,99.90
2018-02-15T18:12:27.436Z,99.90
2018-02-15T18:15:32.548Z,99.90
2018-02-15T18:18:37.287Z,99.90
2018-02-15T18:21:42.872Z,99.90
2018-02-15T18:24:47.919Z,99.90
2018-02-15T18:27:53.152Z,99.90
2018-02-15T18:30:58.872Z,99.90
2018-02-15T18:34:04.168Z,99.90
2018-02-15T18:37:09.755Z,99.90
2018-02-15T18:40:15.018Z,99.90
2018-02-15T18:43:19.991Z,99.90
2018-02-15T18:46:25.325Z,99.90
2018-02-15T18:49:30.268Z,99.90
2018-02-15T18:52:35.468Z,99.90
2018-02-15T18:55:41.359Z,99.90
2018-02-15T18:58:48.595Z,99.90
2018-02-15T19:01:53.780Z,99.90
2018-02-15T19:04:59.064Z,99.90
2018-02-15T19:08:04.400Z,99.90
2018-02-15T19:11:12.491Z,99.90
2018-02-15T19:14:17.483Z,99.90
2018-02-15T19:17:23.231Z,99.90
2018-02-15T19:20:29.192Z,99.90
2018-02-15T19:23:34.499Z,99.90
2018-02-15T19:26:40.175Z,99.90
2018-02-15T19:29:45.871Z,99.90
2018-02-15T19:32:51.112Z,99.90
2018-02-15T19:35:56.653Z,99.90
2018-02-15T19:39:01.614Z,99.90
2018-02-15T19:42:06.962Z,99.90
2018-02-15T19:45:12.129Z,99.90
2018-02-15T19:48:17.504Z,99.90
2018-02-15T19:51:23.315Z,99.90
2018-02-15T19:54:29.053Z,99.90
2018-02-15T19:57:35.519Z,99.90
2018-02-15T20:00:41.711Z,99.90
2018-02-15T20:03:47.586Z,99.90
2018-02-15T20:06:53.255Z,99.90
2018-02-15T20:09:58.616Z,99.90
2018-02-15T20:13:04.346Z,99.90
2018-02-15T20:16:10.436Z,99.90
2018-02-15T20:19:17.450Z,99.90
2018-02-15T20:22:22.621Z,99.90
2018-02-15T20:25:28.135Z,99.90
2018-02-15T20:28:34.611Z,99.90
2018-02-15T20:31:40.120Z,99.90
2018-02-15T20:34:46.079Z,99.90
2018-02-15T20:37:58.077Z,99.90
2018-02-15T20:41:03.299Z,99.90
2018-02-15T20:44:09.172Z,99.90
2018-02-15T20:47:14.893Z,99.90
2018-02-15T20:50:26.640Z,99.90
2018-02-15T20:53:38.683Z,99.90
2018-02-15T20:56:44.252Z,99.90
2018-02-15T20:59:49.366Z,99.90
2018-02-15T21:02:54.600Z,99.90
2018-02-15T21:06:00.484Z,99.90
2018-02-15T21:09:05.500Z,99.90
2018-02-15T21:12:11.378Z,99.90
2018-02-15T21:15:16.464Z,99.90
2018-02-15T21:18:21.805Z,99.90
2018-02-15T21:21:26.868Z,99.90
2018-02-15T21:24:32.056Z,99.90
2018-02-15T21:27:37.804Z,99.90
2018-02-15T21:30:44.471Z,99.90
2018-02-15T21:33:50.076Z,99.90
2018-02-15T21:37:01.917Z,99.90
2018-02-15T21:40:07.851Z,99.90
2018-02-15T21:43:18.056Z,99.90
2018-02-15T21:46:24.889Z,99.90
2018-02-15T21:49:29.914Z,99.90
2018-02-15T21:52:35.623Z,99.90
2018-02-15T21:55:41.045Z,99.90
2018-02-15T21:58:46.498Z,99.90
2018-02-15T22:01:53.025Z,99.90
2018-02-15T22:04:58.754Z,99.90
2018-02-15T22:08:03.629Z,99.90
2018-02-15T22:11:09.616Z,99.90
2018-02-15T22:14:15.186Z,99.90
2018-02-15T22:17:20.151Z,99.90
2018-02-15T22:20:24.935Z,99.90
2018-02-15T22:23:29.904Z,99.90
2018-02-15T22:26:35.688Z,99.90
2018-02-15T22:29:40.508Z,99.90
2018-02-15T22:32:46.219Z,99.90
2018-02-15T22:35:51.493Z,99.90
2018-02-15T22:38:56.400Z,99.90
2018-02-15T22:42:02.170Z,99.90
2018-02-15T22:45:07.277Z,99.90
2018-02-15T22:48:12.912Z,99.90
2018-02-15T22:51:18.256Z,99.90
2018-02-15T22:54:23.615Z,99.90
2018-02-15T22:57:29.103Z,99.90
2018-02-15T23:00:34.837Z,99.90
2018-02-15T23:03:40.580Z,99.90
2018-02-15T23:06:47.188Z,99.90
2018-02-15T23:09:53.084Z,99.90
2018-02-15T23:12:58.880Z,99.90
2018-02-15T23:16:04.574Z,99.90
2018-02-15T23:19:09.919Z,99.90
2018-02-15T23:22:14.952Z,99.90
2018-02-15T23:25:19.964Z,99.90
2018-02-15T23:28:25.312Z,99.90
2018-02-15T23:31:30.973Z,99.90
2018-02-15T23:34:36.068Z,99.90
2018-02-15T23:37:41.349Z,99.90
2018-02-15T23:40:47.281Z,99.90
2018-02-15T23:43:52.278Z,99.90
2018-02-15T23:46:58.765Z,99.90
2018-02-15T23:50:04.394Z,99.90
2018-02-15T23:53:10.138Z,99.90
2018-02-15T23:56:15.146Z,99.90
2018-02-15T23:59:20.540Z,99.90
